Wildhorse Mesa, Colorado
Current Conditions -  °F | °C
As of 5:52 PM on Friday 24 Oct 2014 (Local Time) from KALS Reporting Station
Clear Clear  
Wind Chill: 67°   Ceiling: Unl
Heat Index: 67°   Visibility: 10mi
Dew Point: 22°   Wind: 3mph
Humidity: 18%   Direction: 70°ENE
Pressure: 30.33"   Gusts: NA
Location:  37.0838°N, 105.58°W
Report Text: KALS 242352Z AUTO 07003KT 10SM CLR 19/M06 A3033 RMK AO2 SLP227 T01941056 10217 20150 56003
Loading
Personal Weather Stations






























Interactive Weather Map
Tropical Storm Tracking
New forecast layout! Learn more

10-Day Weather Forecast

Advertisements
Track Severe Weather on mobile